Portada
METAR-TAF:

METAR-TAF

Aeropuertos :

Aeropuerto de Belgrado-Nikola Tesla

Belgrado, Serbia

latitud: 44-49N, longitud: 020-17E, altitud: 96 m

Observación

El informe se hizo hace 33 minutos, a las 16:30 UTC
Viento 6 kt del este-noreste
Temperatura 20°C
Humedad 35%
Presión 1019 hPa
Visibilidad 10 km o más
sin nubes por debajo de 1500 m y sin presencia de cumulonimbus.

METAR: LYBE 171630Z 07006KT CAVOK 20/04 Q1019 NOSIG

Hora: 19:03 (17:03 UTC)

Pronóstico

El informe se hizo hace 6 horas y 3 minutos, a las 11:00 UTC
Pronóstico válido del 17 a las 12 UTC al 18 a las 12 UTC
Viento 9 kt del este-sureste
Visibilidad 10 km o más
sin nubes por debajo de 1500 m y sin presencia de cumulonimbus.

TAF: LYBE 171100Z 1712/1812 12009KT CAVOK TX24/1713Z TN09/1805Z

Observaciones y pronósticos meteorológicos de más de 4000 aeropuertos (mensajes METAR y TAF).

Los puntos amarillos y rojos representan las estaciones disponibles.

Ponga el ratón en el punto deseado para ver el nombre de la estación.

Haga clic para ver las observaciones y los pronósticos meteorológicos.

Para cambiar el mapa : haga clic en los botones verdes con una cruz de color negro para hacer un zoom, en el botón verde con un guión para alejar o en las flechas verdes para mapas adyacentes.


METAR-TAF: